Accueil
METAR-TAF:

METAR-TAF

Aéroports :

Base aérienne 133 Nancy-Ochey

Nancy, France

latitude: 48-35N, longitude: 005-58E, altitude: 336 m

Observation

Le bulletin a été fait il y a 38 minutes, à 17:00 UTC
Vent 14 kt de ouest/sud-ouest
Température 22°C
Humidité 53%
Pression 1015 hPa
Visibilité 10 km ou plus
Quelques nuages à une hauteur de 4900 ft
Ciel couvert à une hauteur de 6800 ft

METAR: LFSO 281700Z AUTO 25014KT 9999 FEW049 OVC068 22/12 Q1015

Heure: 19:38 (17:38 UTC)


TAF: absent

Observations et prévisions météorologiques de plus de 4000 aéroports (messages METAR et TAF).

Les stations disponibles sont représentées par des disques jaunes et rouges sur la carte.

Passer la souris dessus pour voir le nom de la station.

Cliquer dessus pour voir les observations et prévisions météorologiques.

Pour changer de carte: cliquez sur les boutons verts avec une croix noire pour zoomer, sur le bouton vert avec un tiret pour effectuer un zoom arrière, ou sur les flèches vertes pour les cartes adjacentes.


METAR-TAF: